createdAt,value
2022-09-03T00:00:09.440Z,98042.31
2022-09-03T00:03:06.421Z,98034.56
2022-09-03T00:06:30.730Z,98054.25
2022-09-03T00:09:24.789Z,98066.47
2022-09-03T00:12:26.900Z,98112.28
2022-09-03T00:15:12.276Z,98080.16
2022-09-03T00:18:04.842Z,98077.22
2022-09-03T00:20:50.955Z,98078.22
2022-09-03T00:23:30.369Z,98068.97
2022-09-03T00:26:12.357Z,98079.00
2022-09-03T00:29:06.608Z,98065.38
2022-09-03T00:31:47.605Z,98048.09
2022-09-03T00:34:37.997Z,98050.53
2022-09-03T00:37:05.554Z,98052.34
2022-09-03T00:39:33.810Z,98050.84
2022-09-03T00:42:37.523Z,98044.63
2022-09-03T00:45:57.830Z,98049.34
2022-09-03T00:48:48.664Z,98046.28
2022-09-03T00:51:33.944Z,98041.28
2022-09-03T00:55:01.512Z,98032.19
2022-09-03T00:58:13.877Z,98040.88
2022-09-03T01:00:45.629Z,98038.06
2022-09-03T01:04:06.509Z,98038.88
2022-09-03T01:07:10.421Z,98043.78
2022-09-03T01:10:16.381Z,98038.81
2022-09-03T01:13:30.000Z,98038.13
2022-09-03T01:16:39.847Z,98035.56
2022-09-03T01:20:02.959Z,98036.41
2022-09-03T01:23:14.379Z,98032.31
2022-09-03T01:26:35.408Z,98049.69
2022-09-03T01:29:35.264Z,98051.00
2022-09-03T01:32:34.797Z,98060.38
2022-09-03T01:35:47.486Z,98051.13
2022-09-03T01:38:47.223Z,98056.19
2022-09-03T01:42:21.304Z,98071.44
2022-09-03T01:45:22.569Z,98068.03
2022-09-03T01:48:42.212Z,98078.00
2022-09-03T01:51:23.169Z,98079.91
2022-09-03T01:54:22.013Z,98084.00
2022-09-03T01:57:46.041Z,98083.44
2022-09-03T02:00:20.640Z,98080.09
2022-09-03T02:02:54.244Z,98103.38
2022-09-03T02:05:29.201Z,98094.66
2022-09-03T02:08:07.350Z,98102.44
2022-09-03T02:10:53.685Z,98094.00
2022-09-03T02:13:51.140Z,98091.97
2022-09-03T02:16:28.384Z,98091.72
2022-09-03T02:19:03.349Z,98098.09
2022-09-03T02:21:40.794Z,98097.19
2022-09-03T02:24:09.439Z,98092.91
2022-09-03T02:26:37.059Z,98086.72
2022-09-03T02:29:05.495Z,98088.91
2022-09-03T02:31:33.809Z,98087.53
2022-09-03T02:34:01.259Z,98091.53
2022-09-03T02:36:46.555Z,98087.13
2022-09-03T02:39:16.707Z,98079.66
2022-09-03T02:41:44.833Z,98085.06
2022-09-03T02:44:33.157Z,98083.66
2022-09-03T02:47:06.924Z,98087.69
2022-09-03T02:49:35.349Z,98088.06
2022-09-03T02:52:09.701Z,98080.97
2022-09-03T02:54:40.041Z,98082.00
2022-09-03T02:57:16.089Z,98098.91
2022-09-03T02:59:51.122Z,98092.72
2022-09-03T03:02:18.540Z,98096.69
2022-09-03T03:04:45.940Z,98094.69
2022-09-03T03:07:14.107Z,98080.44
2022-09-03T03:09:42.416Z,98083.97
2022-09-03T03:12:10.370Z,98090.28
2022-09-03T03:14:37.782Z,98084.34
2022-09-03T03:17:05.729Z,98090.06
2022-09-03T03:19:33.157Z,98081.94
2022-09-03T03:22:00.789Z,98084.47
2022-09-03T03:24:28.507Z,98087.44
2022-09-03T03:26:59.809Z,98088.66
2022-09-03T03:29:27.936Z,98090.78
2022-09-03T03:31:55.235Z,98079.41
2022-09-03T03:34:23.369Z,98088.03
2022-09-03T03:36:50.764Z,98092.78
2022-09-03T03:39:18.300Z,98088.94
2022-09-03T03:41:45.663Z,98087.13
2022-09-03T03:44:12.977Z,98079.47
2022-09-03T03:46:41.929Z,98075.44
2022-09-03T03:49:11.100Z,98080.59
2022-09-03T03:51:39.313Z,98084.81
2022-09-03T03:54:06.933Z,98082.72
2022-09-03T03:56:35.478Z,98077.84
2022-09-03T03:59:03.611Z,98079.03
2022-09-03T04:01:31.116Z,98068.06
2022-09-03T04:04:01.807Z,98077.75
2022-09-03T04:06:29.592Z,98078.91
2022-09-03T04:08:57.031Z,98072.53
2022-09-03T04:11:27.058Z,98080.69
2022-09-03T04:13:54.897Z,98070.63
2022-09-03T04:16:27.416Z,98060.47
2022-09-03T04:18:56.800Z,98065.72
2022-09-03T04:21:31.551Z,98063.38
2022-09-03T04:23:59.473Z,98059.22
2022-09-03T04:26:34.274Z,98036.31
2022-09-03T04:29:07.223Z,98049.84
2022-09-03T04:31:38.752Z,98055.19
2022-09-03T04:34:07.418Z,98050.28
2022-09-03T04:36:35.177Z,98060.72
2022-09-03T04:39:02.863Z,98053.09
2022-09-03T04:41:31.894Z,98051.19
2022-09-03T04:44:00.394Z,98060.31
2022-09-03T04:46:35.367Z,98068.16
2022-09-03T04:49:03.018Z,98073.88
2022-09-03T04:51:31.809Z,98069.22
2022-09-03T04:54:02.542Z,98071.97
2022-09-03T04:56:35.112Z,98065.88
2022-09-03T04:59:09.586Z,98073.28
2022-09-03T05:01:40.586Z,98061.41
2022-09-03T05:04:08.988Z,98068.53
2022-09-03T05:06:37.657Z,98071.09
2022-09-03T05:09:06.010Z,98065.06
2022-09-03T05:11:36.272Z,98073.03
2022-09-03T05:14:05.873Z,98075.16
2022-09-03T05:16:33.379Z,98063.75
2022-09-03T05:19:01.435Z,98077.41
2022-09-03T05:21:30.732Z,98067.78
2022-09-03T05:24:01.860Z,98078.47
2022-09-03T05:26:37.129Z,98081.81
2022-09-03T05:29:07.813Z,98070.84
2022-09-03T05:31:39.575Z,98071.19
2022-09-03T05:34:07.754Z,98072.16
2022-09-03T05:36:38.313Z,98066.13
2022-09-03T05:39:06.503Z,98067.78
2022-09-03T05:41:34.465Z,98069.91
2022-09-03T05:44:02.579Z,98072.16
2022-09-03T05:46:35.077Z,98067.50
2022-09-03T05:49:06.438Z,98070.13
2022-09-03T05:51:36.693Z,98071.59
2022-09-03T05:54:04.266Z,98064.97
2022-09-03T05:56:35.697Z,98061.81
2022-09-03T05:59:09.367Z,98063.72
2022-09-03T06:01:50.937Z,98062.97
2022-09-03T06:04:20.393Z,98066.88
2022-09-03T06:06:49.030Z,98064.97
2022-09-03T06:09:23.288Z,98057.91
2022-09-03T06:11:54.343Z,98066.53
2022-09-03T06:14:25.244Z,98064.47
2022-09-03T06:16:53.089Z,98070.78
2022-09-03T06:19:20.999Z,98069.78
2022-09-03T06:21:48.891Z,98059.41
2022-09-03T06:24:26.472Z,98069.78
2022-09-03T06:26:59.346Z,98068.34
2022-09-03T06:29:27.644Z,98068.69
2022-09-03T06:31:55.085Z,98072.25
2022-09-03T06:34:25.561Z,98059.72
2022-09-03T06:36:54.554Z,98062.31
2022-09-03T06:39:22.421Z,98067.63
2022-09-03T06:41:51.847Z,98069.69
2022-09-03T06:44:19.320Z,98070.09
2022-09-03T06:46:48.502Z,98059.63
2022-09-03T06:49:15.853Z,98058.81
2022-09-03T06:51:44.075Z,98046.00
2022-09-03T06:54:13.262Z,98047.16
2022-09-03T06:56:41.985Z,98051.03
2022-09-03T06:59:15.224Z,98048.56
2022-09-03T07:01:46.159Z,98058.34
2022-09-03T07:04:20.275Z,98046.13
2022-09-03T07:06:47.809Z,98068.19
2022-09-03T07:09:18.150Z,98069.34
2022-09-03T07:11:49.388Z,98072.38
2022-09-03T07:14:22.305Z,98065.91
2022-09-03T07:16:50.688Z,98072.69
2022-09-03T07:19:18.348Z,98063.78
2022-09-03T07:21:49.988Z,98065.47
2022-09-03T07:24:22.796Z,98070.59
2022-09-03T07:26:50.218Z,98065.94
2022-09-03T07:29:21.902Z,98073.97
2022-09-03T07:31:51.934Z,98074.94
2022-09-03T07:34:22.125Z,98070.91
2022-09-03T07:36:51.384Z,98073.56
2022-09-03T07:39:19.838Z,98064.88
2022-09-03T07:41:47.769Z,98078.13
2022-09-03T07:44:19.752Z,98079.28
2022-09-03T07:46:51.944Z,98078.06
2022-09-03T07:49:21.732Z,98075.22
2022-09-03T07:51:54.305Z,98079.06
2022-09-03T07:54:23.572Z,98078.50
2022-09-03T07:56:51.394Z,98081.69
2022-09-03T07:59:19.250Z,98085.66
2022-09-03T08:01:46.572Z,98095.66
2022-09-03T08:04:14.137Z,98106.41
2022-09-03T08:06:42.286Z,98111.94
2022-09-03T08:09:13.930Z,98119.94
2022-09-03T08:11:43.761Z,98112.78
2022-09-03T08:14:15.435Z,98113.44
2022-09-03T08:16:48.081Z,98123.00
2022-09-03T08:19:18.424Z,98135.25
2022-09-03T08:21:46.149Z,98129.56
2022-09-03T08:24:20.916Z,98135.31
2022-09-03T08:26:52.132Z,98130.31
2022-09-03T08:29:21.467Z,98130.91
2022-09-03T08:31:49.295Z,98144.72
2022-09-03T08:34:17.803Z,98150.78
2022-09-03T08:36:47.273Z,98170.72
2022-09-03T08:39:14.776Z,98222.53
2022-09-03T08:42:29.147Z,98253.03
2022-09-03T08:45:06.630Z,98268.53
2022-09-03T08:47:48.290Z,98262.41
2022-09-03T08:50:36.044Z,98232.47
2022-09-03T08:53:55.965Z,98255.28
2022-09-03T08:56:33.026Z,98251.91
2022-09-03T08:59:02.200Z,98260.50
2022-09-03T09:02:51.039Z,98260.03
2022-09-03T09:05:47.064Z,98256.56
2022-09-03T09:09:03.054Z,98238.41
2022-09-03T09:12:15.963Z,98233.69
2022-09-03T09:15:43.237Z,98244.75
2022-09-03T09:19:03.352Z,98245.56
2022-09-03T09:22:41.228Z,98255.38
2022-09-03T09:25:20.528Z,98260.34
2022-09-03T09:28:36.156Z,98271.31
2022-09-03T09:31:11.617Z,98273.75
2022-09-03T09:33:39.384Z,98287.94
2022-09-03T09:36:15.368Z,98297.50
2022-09-03T09:38:45.556Z,98289.16
2022-09-03T09:41:23.369Z,98284.00
2022-09-03T09:44:05.704Z,98287.41
2022-09-03T09:46:43.124Z,98287.75
2022-09-03T09:49:58.602Z,98297.19
2022-09-03T09:52:30.273Z,98303.19
2022-09-03T09:55:19.190Z,98308.34
2022-09-03T09:57:47.331Z,98310.41
2022-09-03T10:00:18.781Z,98309.88
2022-09-03T10:02:54.755Z,98303.25
2022-09-03T10:05:36.795Z,98310.09
2022-09-03T10:08:22.023Z,98320.31
2022-09-03T10:10:51.832Z,98321.97
2022-09-03T10:13:30.789Z,98311.66
2022-09-03T10:16:43.315Z,98300.50
2022-09-03T10:19:26.216Z,98303.25
2022-09-03T10:22:18.862Z,98280.41
2022-09-03T10:25:02.888Z,98257.91
2022-09-03T10:27:32.139Z,98275.09
2022-09-03T10:30:00.730Z,98275.03
2022-09-03T10:33:07.116Z,98264.25
2022-09-03T10:35:52.716Z,98273.81
2022-09-03T10:38:34.591Z,98269.63
2022-09-03T10:41:55.832Z,98281.50
2022-09-03T10:44:43.681Z,98278.31
2022-09-03T10:48:17.309Z,98289.97
2022-09-03T10:51:49.488Z,98291.13
2022-09-03T10:55:03.939Z,98282.72
2022-09-03T10:58:38.338Z,98282.41
2022-09-03T11:02:15.290Z,98267.19
2022-09-03T11:05:30.529Z,98267.19
2022-09-03T11:08:21.957Z,98259.53
2022-09-03T11:11:08.764Z,98253.44
2022-09-03T11:14:12.249Z,98254.13
2022-09-03T11:16:54.245Z,98256.03
2022-09-03T11:20:06.519Z,98245.81
2022-09-03T11:22:35.000Z,98250.69
2022-09-03T11:25:05.589Z,98233.22
2022-09-03T11:28:12.780Z,98236.66
2022-09-03T11:31:52.945Z,98225.69
2022-09-03T11:34:32.266Z,98217.38
2022-09-03T11:37:26.280Z,98217.06
2022-09-03T11:40:19.368Z,98218.78
2022-09-03T11:42:47.385Z,98213.00
2022-09-03T11:45:30.174Z,98204.69
2022-09-03T11:47:57.781Z,98201.41
2022-09-03T11:50:34.543Z,98198.63
2022-09-03T11:53:15.118Z,98198.03
2022-09-03T11:56:05.198Z,98190.94
2022-09-03T11:58:42.960Z,98187.63
2022-09-03T12:01:20.748Z,98185.44
2022-09-03T12:04:09.756Z,98197.84
2022-09-03T12:07:40.595Z,98188.78
2022-09-03T12:10:41.751Z,98199.47
2022-09-03T12:14:21.330Z,98203.94
2022-09-03T12:18:31.967Z,98197.84
2022-09-03T12:21:00.166Z,98199.78
2022-09-03T12:23:51.035Z,98200.88
2022-09-03T12:26:27.552Z,98189.25
2022-09-03T12:29:00.872Z,98182.41
2022-09-03T12:31:46.760Z,98194.28
2022-09-03T12:34:18.636Z,98191.50
2022-09-03T12:36:52.148Z,98191.78
2022-09-03T12:42:30.880Z,98171.97
2022-09-03T12:45:12.728Z,98172.47
2022-09-03T12:47:41.994Z,98166.22
2022-09-03T12:50:17.075Z,98164.47
2022-09-03T12:52:53.782Z,98163.72
2022-09-03T12:55:36.830Z,98170.31
2022-09-03T12:58:54.342Z,98145.81
2022-09-03T13:01:33.456Z,98146.78
2022-09-03T13:04:15.269Z,98139.25
2022-09-03T13:07:08.275Z,98144.00
2022-09-03T13:09:39.889Z,98142.16
2022-09-03T13:12:07.856Z,98144.41
2022-09-03T13:14:48.273Z,98142.91
2022-09-03T13:18:01.983Z,98142.59
2022-09-03T13:21:32.589Z,98137.63
2022-09-03T13:25:01.983Z,98135.78
2022-09-03T13:28:18.956Z,98142.44
2022-09-03T13:31:21.662Z,98142.72
2022-09-03T13:34:12.928Z,98143.81
2022-09-03T13:37:10.143Z,98151.81
2022-09-03T13:40:36.249Z,98139.75
2022-09-03T13:43:43.536Z,98142.84
2022-09-03T13:47:02.577Z,98126.19
2022-09-03T13:50:09.206Z,98124.88
2022-09-03T13:53:10.504Z,98125.25
2022-09-03T13:55:55.828Z,98115.28
2022-09-03T13:58:48.920Z,98118.78
2022-09-03T14:01:46.074Z,98110.63
2022-09-03T14:04:29.169Z,98121.56
2022-09-03T14:07:15.756Z,98113.47
2022-09-03T14:10:46.541Z,98116.31
2022-09-03T14:13:59.490Z,98113.28
2022-09-03T14:16:39.802Z,98125.41
2022-09-03T14:20:00.540Z,98106.00
2022-09-03T14:23:08.785Z,98111.66
2022-09-03T14:25:37.108Z,98100.47
2022-09-03T14:28:44.435Z,98102.16
2022-09-03T14:32:03.445Z,98109.78
2022-09-03T14:35:52.839Z,98110.50
2022-09-03T14:39:24.566Z,98109.81
2022-09-03T14:42:07.823Z,98112.06
2022-09-03T14:45:13.367Z,98107.66
2022-09-03T14:48:58.248Z,98116.94
2022-09-03T14:52:39.423Z,98123.31
2022-09-03T14:55:40.692Z,98128.94
2022-09-03T14:58:54.059Z,98115.94
2022-09-03T15:01:39.451Z,98118.94
2022-09-03T15:04:50.259Z,98114.00
2022-09-03T15:07:59.113Z,98122.13
2022-09-03T15:10:56.397Z,98135.38
2022-09-03T15:14:18.679Z,98146.69
2022-09-03T15:17:24.664Z,98157.28
2022-09-03T15:20:53.359Z,98143.72
2022-09-03T15:23:59.916Z,98140.69
2022-09-03T15:27:19.298Z,98147.06
2022-09-03T15:30:13.191Z,98142.38
2022-09-03T15:33:06.855Z,98145.66
2022-09-03T15:36:14.996Z,98143.47
2022-09-03T15:39:09.322Z,98147.28
2022-09-03T15:42:10.347Z,98154.97
2022-09-03T15:44:57.086Z,98140.59
2022-09-03T15:47:50.719Z,98143.53
2022-09-03T15:50:58.942Z,98144.09
2022-09-03T15:54:16.386Z,98159.94
2022-09-03T15:57:15.591Z,98165.47
2022-09-03T16:00:13.245Z,98170.72
2022-09-03T16:03:20.388Z,98171.03
2022-09-03T16:06:17.237Z,98176.50
2022-09-03T16:09:03.223Z,98176.56
2022-09-03T16:12:07.424Z,98180.66
2022-09-03T16:15:00.864Z,98181.78
2022-09-03T16:18:37.376Z,98191.19
2022-09-03T16:21:43.505Z,98183.75
2022-09-03T16:25:07.408Z,98177.91
2022-09-03T16:28:19.743Z,98176.81
2022-09-03T16:31:57.273Z,98182.91
2022-09-03T16:35:44.020Z,98174.09
2022-09-03T16:38:46.697Z,98167.22
2022-09-03T16:41:58.316Z,98168.06
2022-09-03T16:45:20.301Z,98170.00
2022-09-03T16:48:50.813Z,98167.22
2022-09-03T16:51:55.349Z,98173.88
2022-09-03T16:55:14.737Z,98176.03
2022-09-03T16:58:26.961Z,98176.09
2022-09-03T17:02:23.687Z,98170.59
2022-09-03T17:05:12.501Z,98169.16
2022-09-03T17:08:42.561Z,98168.34
2022-09-03T17:12:04.833Z,98167.50
2022-09-03T17:15:16.843Z,98162.25
2022-09-03T17:18:49.889Z,98168.88
2022-09-03T17:22:20.675Z,98156.19
2022-09-03T17:25:05.789Z,98163.91
2022-09-03T17:28:22.691Z,98166.09
2022-09-03T17:31:37.386Z,98147.91
2022-09-03T17:35:00.881Z,98151.75
2022-09-03T17:38:50.821Z,98155.34
2022-09-03T17:42:12.558Z,98158.09
2022-09-03T17:45:35.214Z,98160.56
2022-09-03T17:48:42.186Z,98155.34
2022-09-03T17:51:50.442Z,98167.47
2022-09-03T17:54:37.184Z,98171.84
2022-09-03T17:57:38.240Z,98173.25
2022-09-03T18:00:21.992Z,98172.63
2022-09-03T18:03:49.688Z,98176.53
2022-09-03T18:06:41.802Z,98170.69
2022-09-03T18:09:57.412Z,98177.84
2022-09-03T18:13:55.524Z,98180.88
2022-09-03T18:16:39.624Z,98189.94
2022-09-03T18:19:58.543Z,98191.28
2022-09-03T18:23:03.070Z,98207.25
2022-09-03T18:25:52.270Z,98200.38
2022-09-03T18:29:18.165Z,98208.06
2022-09-03T18:32:04.173Z,98216.84
2022-09-03T18:34:54.992Z,98222.31
2022-09-03T18:37:46.468Z,98221.25
2022-09-03T18:40:53.840Z,98229.97
2022-09-03T18:44:22.158Z,98229.69
2022-09-03T18:48:27.067Z,98221.16
2022-09-03T18:51:52.451Z,98215.31
2022-09-03T18:55:18.303Z,98234.59
2022-09-03T18:59:01.117Z,98247.28
2022-09-03T19:01:59.805Z,98243.56
2022-09-03T19:05:25.628Z,98243.22
2022-09-03T19:08:38.853Z,98250.91
2022-09-03T19:12:27.716Z,98257.94
2022-09-03T19:15:38.982Z,98260.13
2022-09-03T19:19:42.196Z,98274.44
2022-09-03T19:22:33.067Z,98281.91
2022-09-03T19:25:33.940Z,98292.91
2022-09-03T19:28:42.656Z,98305.19
2022-09-03T19:32:06.436Z,98302.25
2022-09-03T19:35:23.557Z,98302.63
2022-09-03T19:39:24.351Z,98309.53
2022-09-03T19:42:41.928Z,98306.44
2022-09-03T19:46:10.440Z,98304.44
2022-09-03T19:49:43.869Z,98310.59
2022-09-03T19:53:23.371Z,98326.50
2022-09-03T19:56:18.360Z,98327.22
2022-09-03T19:59:43.376Z,98324.53
2022-09-03T20:02:29.810Z,98333.34
2022-09-03T20:05:24.992Z,98338.16
2022-09-03T20:08:14.717Z,98334.03
2022-09-03T20:10:48.893Z,98324.53
2022-09-03T20:13:20.687Z,98332.72
2022-09-03T20:16:14.602Z,98328.38
2022-09-03T20:19:45.636Z,98331.34
2022-09-03T20:22:44.357Z,98329.44
2022-09-03T20:26:11.416Z,98333.25
2022-09-03T20:29:34.092Z,98327.91
2022-09-03T20:32:41.715Z,98321.34
2022-09-03T20:35:53.455Z,98321.59
2022-09-03T20:39:03.835Z,98326.97
2022-09-03T20:42:14.366Z,98333.88
2022-09-03T20:45:32.683Z,98319.34
2022-09-03T20:48:43.318Z,98336.81
2022-09-03T20:51:46.087Z,98338.88
2022-09-03T20:54:42.578Z,98346.78
2022-09-03T20:58:11.393Z,98347.88
2022-09-03T21:01:16.544Z,98347.44
2022-09-03T21:04:32.417Z,98348.59
2022-09-03T21:07:43.167Z,98358.88
2022-09-03T21:10:48.013Z,98353.16
2022-09-03T21:13:52.728Z,98347.75
2022-09-03T21:17:00.179Z,98364.44
2022-09-03T21:20:28.604Z,98357.19
2022-09-03T21:23:38.276Z,98368.03
2022-09-03T21:26:33.924Z,98358.91
2022-09-03T21:29:30.877Z,98366.88
2022-09-03T21:32:29.699Z,98366.94
2022-09-03T21:35:42.832Z,98371.81
2022-09-03T21:38:31.388Z,98370.97
2022-09-03T21:41:34.724Z,98369.22
2022-09-03T21:44:32.918Z,98375.31
2022-09-03T21:47:10.545Z,98372.16
2022-09-03T21:49:57.447Z,98370.81
2022-09-03T21:53:02.909Z,98368.66
2022-09-03T21:56:07.865Z,98373.53
2022-09-03T21:59:22.469Z,98379.72
2022-09-03T22:02:28.802Z,98378.88
2022-09-03T22:04:58.665Z,98380.03
2022-09-03T22:08:23.164Z,98390.59
2022-09-03T22:12:03.701Z,98387.69
2022-09-03T22:14:47.935Z,98387.19
2022-09-03T22:17:56.923Z,98381.03
2022-09-03T22:20:28.629Z,98390.84
2022-09-03T22:23:24.804Z,98382.88
2022-09-03T22:26:14.511Z,98369.47
2022-09-03T22:29:24.504Z,98372.03
2022-09-03T22:32:25.363Z,98381.44
2022-09-03T22:35:33.811Z,98382.78
2022-09-03T22:38:33.074Z,98383.84
2022-09-03T22:41:45.935Z,98390.69
2022-09-03T22:44:50.961Z,98390.59
2022-09-03T22:48:06.389Z,98389.19
2022-09-03T22:50:59.288Z,98390.75
2022-09-03T22:54:31.968Z,98395.88
2022-09-03T22:57:01.347Z,98389.50
2022-09-03T22:59:41.512Z,98382.84
2022-09-03T23:02:26.420Z,98382.69
2022-09-03T23:05:28.083Z,98388.03
2022-09-03T23:08:33.732Z,98404.13
2022-09-03T23:11:29.971Z,98408.44
2022-09-03T23:14:12.389Z,98411.63
2022-09-03T23:16:54.354Z,98404.72
2022-09-03T23:19:40.878Z,98410.63
2022-09-03T23:22:41.713Z,98402.13
2022-09-03T23:25:25.643Z,98400.72
2022-09-03T23:28:22.061Z,98410.13
2022-09-03T23:30:49.756Z,98403.63
2022-09-03T23:33:17.166Z,98420.66
2022-09-03T23:37:32.415Z,98418.97
2022-09-03T23:40:15.284Z,98425.81
2022-09-03T23:43:48.205Z,98432.22
2022-09-03T23:47:03.649Z,98431.09
2022-09-03T23:50:11.968Z,98432.38
2022-09-03T23:53:53.619Z,98437.06
2022-09-03T23:57:13.032Z,98444.06
